createdAt,value
2023-05-02T00:01:36.246Z,99.90
2023-05-02T00:04:03.951Z,99.90
2023-05-02T00:06:31.857Z,99.90
2023-05-02T00:08:59.294Z,99.90
2023-05-02T00:11:26.603Z,99.90
2023-05-02T00:13:53.850Z,99.90
2023-05-02T00:16:21.571Z,99.90
2023-05-02T00:18:49.298Z,99.90
2023-05-02T00:21:16.571Z,99.90
2023-05-02T00:23:43.838Z,99.90
2023-05-02T00:26:11.311Z,99.90
2023-05-02T00:28:42.705Z,99.90
2023-05-02T00:31:10.552Z,99.90
2023-05-02T00:33:37.873Z,99.90
2023-05-02T00:36:05.297Z,99.90
2023-05-02T00:38:32.575Z,99.90
2023-05-02T00:41:00.063Z,99.90
2023-05-02T00:43:30.922Z,99.90
2023-05-02T00:45:59.048Z,99.90
2023-05-02T00:48:26.743Z,99.90
2023-05-02T00:50:54.025Z,99.90
2023-05-02T00:53:21.766Z,99.90
2023-05-02T00:55:49.550Z,99.90
2023-05-02T00:58:19.861Z,99.90
2023-05-02T01:00:56.565Z,99.90
2023-05-02T01:03:23.954Z,99.90
2023-05-02T01:06:24.280Z,99.90
2023-05-02T01:09:13.100Z,99.90
2023-05-02T01:11:57.152Z,99.90
2023-05-02T01:14:28.134Z,99.90
2023-05-02T01:16:58.119Z,99.90
2023-05-02T01:19:41.972Z,99.90
2023-05-02T01:22:11.683Z,99.90
2023-05-02T01:25:17.055Z,99.90
2023-05-02T01:28:29.058Z,99.90
2023-05-02T01:30:57.147Z,99.90
2023-05-02T01:33:27.286Z,99.90
2023-05-02T01:35:56.010Z,99.90
2023-05-02T01:38:25.343Z,99.90
2023-05-02T01:40:54.608Z,99.90
2023-05-02T01:43:22.977Z,99.90
2023-05-02T01:45:52.090Z,99.90
2023-05-02T01:48:20.509Z,99.90
2023-05-02T01:50:48.870Z,99.90
2023-05-02T01:53:17.318Z,99.90
2023-05-02T01:55:46.285Z,99.90
2023-05-02T01:58:15.135Z,99.90
2023-05-02T02:00:45.276Z,99.90
2023-05-02T02:03:14.979Z,99.90
2023-05-02T02:05:43.234Z,99.90
2023-05-02T02:08:10.707Z,99.90
2023-05-02T02:10:46.243Z,99.90
2023-05-02T02:13:37.446Z,99.90
2023-05-02T02:16:07.029Z,99.90
2023-05-02T02:18:37.609Z,99.90
2023-05-02T02:21:09.593Z,99.90
2023-05-02T02:23:39.762Z,99.90
2023-05-02T02:26:08.374Z,99.90
2023-05-02T02:28:36.665Z,99.90
2023-05-02T02:31:04.052Z,99.90
2023-05-02T02:33:32.094Z,99.90
2023-05-02T02:36:12.573Z,99.90
2023-05-02T02:39:00.704Z,99.90
2023-05-02T02:41:35.487Z,99.90
2023-05-02T02:44:21.488Z,99.90
2023-05-02T02:47:05.901Z,99.90
2023-05-02T02:49:45.789Z,99.90
2023-05-02T02:52:33.328Z,99.90
2023-05-02T02:55:06.236Z,99.90
2023-05-02T02:57:40.923Z,99.90
2023-05-02T03:00:35.643Z,99.90
2023-05-02T03:03:03.346Z,99.90
2023-05-02T03:05:32.974Z,99.90
2023-05-02T03:08:03.305Z,99.90
2023-05-02T03:10:30.736Z,99.90
2023-05-02T03:12:58.256Z,99.90
2023-05-02T03:15:48.440Z,99.90
2023-05-02T03:18:16.480Z,99.90
2023-05-02T03:20:43.840Z,99.90
2023-05-02T03:23:11.419Z,99.90
2023-05-02T03:25:39.144Z,99.90
2023-05-02T03:28:10.743Z,99.90
2023-05-02T03:30:40.732Z,99.90
2023-05-02T03:33:09.720Z,99.90
2023-05-02T03:35:38.197Z,99.90
2023-05-02T03:38:05.649Z,99.90
2023-05-02T03:40:32.951Z,99.90
2023-05-02T03:43:00.684Z,99.90
2023-05-02T03:45:32.144Z,99.90
2023-05-02T03:48:00.883Z,99.90
2023-05-02T03:50:28.466Z,99.90
2023-05-02T03:52:57.117Z,99.90
2023-05-02T03:55:38.850Z,99.90
2023-05-02T03:58:06.992Z,99.90
2023-05-02T04:00:35.073Z,99.90
2023-05-02T04:03:07.210Z,99.90
2023-05-02T04:05:36.332Z,99.90
2023-05-02T04:08:03.774Z,99.90
2023-05-02T04:10:31.626Z,99.90
2023-05-02T04:13:03.153Z,99.90
2023-05-02T04:15:32.226Z,99.90
2023-05-02T04:18:00.011Z,99.90
2023-05-02T04:20:29.283Z,99.90
2023-05-02T04:22:56.736Z,99.90
2023-05-02T04:25:23.981Z,99.90
2023-05-02T04:27:53.936Z,99.90
2023-05-02T04:30:23.766Z,99.90
2023-05-02T04:33:08.005Z,99.90
2023-05-02T04:35:40.864Z,99.90
2023-05-02T04:38:09.412Z,99.90
2023-05-02T04:40:37.579Z,99.90
2023-05-02T04:43:07.529Z,99.90
2023-05-02T04:45:40.522Z,99.90
2023-05-02T04:48:14.018Z,99.90
2023-05-02T04:50:41.363Z,99.90
2023-05-02T04:53:08.600Z,99.90
2023-05-02T04:55:36.454Z,99.90
2023-05-02T04:58:04.472Z,99.90
2023-05-02T05:00:32.755Z,99.90
2023-05-02T05:03:01.992Z,99.90
2023-05-02T05:05:30.050Z,99.90
2023-05-02T05:07:57.690Z,99.90
2023-05-02T05:10:27.754Z,99.90
2023-05-02T05:12:54.948Z,99.90
2023-05-02T05:15:24.099Z,99.90
2023-05-02T05:17:56.200Z,99.90
2023-05-02T05:20:24.169Z,99.90
2023-05-02T05:22:54.801Z,99.90
2023-05-02T05:25:23.019Z,99.90
2023-05-02T05:27:52.507Z,99.90
2023-05-02T05:30:20.188Z,99.90
2023-05-02T05:32:48.343Z,99.90
2023-05-02T05:35:15.804Z,99.90
2023-05-02T05:37:43.661Z,99.90
2023-05-02T05:40:13.671Z,99.90
2023-05-02T05:42:43.899Z,99.90
2023-05-02T05:45:19.435Z,99.90
2023-05-02T05:47:46.872Z,99.90
2023-05-02T05:50:18.537Z,99.90
2023-05-02T05:52:46.630Z,99.90
2023-05-02T05:55:13.864Z,99.90
2023-05-02T05:57:41.239Z,99.90
2023-05-02T06:00:11.009Z,99.90
2023-05-02T06:02:47.158Z,99.90
2023-05-02T06:05:22.877Z,99.90
2023-05-02T06:07:51.496Z,99.90
2023-05-02T06:10:18.905Z,99.90
2023-05-02T06:12:50.211Z,99.90
2023-05-02T06:15:20.442Z,99.90
2023-05-02T06:17:48.157Z,99.90
2023-05-02T06:20:18.154Z,99.90
2023-05-02T06:22:46.151Z,99.90
2023-05-02T06:25:13.765Z,99.90
2023-05-02T06:27:41.061Z,99.90
2023-05-02T06:30:08.838Z,99.90
2023-05-02T06:32:36.268Z,99.90
2023-05-02T06:35:03.665Z,99.90
2023-05-02T06:37:37.123Z,99.90
2023-05-02T06:40:05.450Z,99.90
2023-05-02T06:42:32.764Z,99.90
2023-05-02T06:45:00.036Z,99.90
2023-05-02T06:47:29.941Z,99.90
2023-05-02T06:49:57.519Z,99.90
2023-05-02T06:52:24.992Z,99.90
2023-05-02T06:54:52.173Z,99.90
2023-05-02T06:57:19.626Z,99.90
2023-05-02T06:59:47.610Z,99.90
2023-05-02T07:02:14.924Z,99.90
2023-05-02T07:04:42.324Z,99.90
2023-05-02T07:07:09.656Z,99.90
2023-05-02T07:09:38.577Z,99.90
2023-05-02T07:12:07.413Z,99.90
2023-05-02T07:14:34.793Z,99.90
2023-05-02T07:17:02.369Z,99.90
2023-05-02T07:19:31.951Z,99.90
2023-05-02T07:21:59.203Z,99.90
2023-05-02T07:24:26.621Z,99.90
2023-05-02T07:26:53.952Z,99.90
2023-05-02T07:29:21.252Z,99.90
2023-05-02T07:31:48.643Z,99.90
2023-05-02T07:34:16.056Z,99.90
2023-05-02T07:36:43.339Z,99.90
2023-05-02T07:39:10.724Z,99.90
2023-05-02T07:41:38.040Z,99.90
2023-05-02T07:44:05.456Z,99.90
2023-05-02T07:46:32.744Z,99.90
2023-05-02T07:49:00.150Z,99.90
2023-05-02T07:51:28.099Z,99.90
2023-05-02T07:53:58.444Z,99.90
2023-05-02T07:56:25.841Z,99.90
2023-05-02T07:58:53.283Z,99.90
2023-05-02T08:01:20.588Z,99.90
2023-05-02T08:03:49.789Z,99.90
2023-05-02T08:06:17.644Z,99.90
2023-05-02T08:08:45.021Z,99.90
2023-05-02T08:11:12.379Z,99.90
2023-05-02T08:13:39.552Z,99.90
2023-05-02T08:16:07.029Z,99.90
2023-05-02T08:18:34.387Z,99.90
2023-05-02T08:21:01.661Z,99.90
2023-05-02T08:23:28.887Z,99.90
2023-05-02T08:25:56.218Z,99.90
2023-05-02T08:28:23.484Z,99.90
2023-05-02T08:30:50.933Z,99.90
2023-05-02T08:33:18.270Z,99.90
2023-05-02T08:35:45.514Z,99.90
2023-05-02T08:38:12.819Z,99.90
2023-05-02T08:40:42.876Z,99.90
2023-05-02T08:43:13.627Z,99.90
2023-05-02T08:45:43.176Z,99.90
2023-05-02T08:48:13.282Z,99.90
2023-05-02T08:50:44.379Z,99.90
2023-05-02T08:53:13.511Z,99.90
2023-05-02T08:55:42.369Z,99.90
2023-05-02T08:58:11.307Z,99.90
2023-05-02T09:00:41.033Z,99.90
2023-05-02T09:03:31.927Z,99.90
2023-05-02T09:06:08.613Z,99.90
2023-05-02T09:08:37.158Z,99.90
2023-05-02T09:11:05.320Z,99.90
2023-05-02T09:13:34.707Z,99.90
2023-05-02T09:16:13.528Z,99.90
2023-05-02T09:18:45.848Z,99.90
2023-05-02T09:21:20.629Z,99.90
2023-05-02T09:23:49.500Z,99.90
2023-05-02T09:26:21.819Z,99.90
2023-05-02T09:28:56.524Z,99.90
2023-05-02T09:31:49.904Z,99.90
2023-05-02T09:34:17.683Z,99.90
2023-05-02T09:36:47.316Z,99.90
2023-05-02T09:39:16.826Z,99.90
2023-05-02T09:41:46.789Z,99.90
2023-05-02T09:44:19.293Z,99.90
2023-05-02T09:46:48.981Z,99.90
2023-05-02T09:49:19.492Z,99.90
2023-05-02T09:51:47.976Z,99.90
2023-05-02T09:54:35.554Z,99.90
2023-05-02T09:57:03.720Z,99.90
2023-05-02T09:59:31.124Z,99.90
2023-05-02T10:02:00.354Z,99.90
2023-05-02T10:04:29.148Z,99.90
2023-05-02T10:06:57.528Z,99.90
2023-05-02T10:09:26.397Z,99.90
2023-05-02T10:11:55.383Z,99.90
2023-05-02T10:14:28.576Z,99.90
2023-05-02T10:17:04.165Z,99.90
2023-05-02T10:19:45.282Z,99.90
2023-05-02T10:22:13.670Z,99.90
2023-05-02T10:24:41.415Z,99.90
2023-05-02T10:27:08.784Z,99.90
2023-05-02T10:29:36.968Z,99.90
2023-05-02T10:32:05.578Z,99.90
2023-05-02T10:34:34.075Z,99.90
2023-05-02T10:37:02.127Z,99.90
2023-05-02T10:39:30.341Z,99.90
2023-05-02T10:42:02.103Z,99.90
2023-05-02T10:44:40.892Z,99.90
2023-05-02T10:47:21.775Z,99.90
2023-05-02T10:49:57.504Z,99.90
2023-05-02T10:52:37.904Z,99.90
2023-05-02T10:55:22.879Z,99.90
2023-05-02T10:58:02.106Z,99.90
2023-05-02T11:00:34.266Z,99.90
2023-05-02T11:03:02.839Z,99.90
2023-05-02T11:05:30.406Z,99.90
2023-05-02T11:08:16.815Z,99.90
2023-05-02T11:10:46.479Z,99.90
2023-05-02T11:13:13.800Z,99.90
2023-05-02T11:15:41.252Z,99.90
2023-05-02T11:18:12.403Z,99.90
2023-05-02T11:20:49.155Z,99.90
2023-05-02T11:23:16.560Z,99.90
2023-05-02T11:25:46.368Z,99.90
2023-05-02T11:28:48.277Z,99.90
2023-05-02T11:31:28.319Z,99.90
2023-05-02T11:33:57.015Z,99.90
2023-05-02T11:36:34.843Z,99.90
2023-05-02T11:39:03.529Z,99.90
2023-05-02T11:41:40.733Z,99.90
2023-05-02T11:44:08.187Z,99.90
2023-05-02T11:46:39.957Z,98.80
2023-05-02T11:49:14.709Z,97.90
2023-05-02T11:51:42.470Z,98.40
2023-05-02T11:54:16.837Z,98.50
2023-05-02T11:56:44.070Z,98.20
2023-05-02T11:59:11.502Z,97.00
2023-05-02T12:01:48.366Z,96.40
2023-05-02T12:04:15.607Z,95.70
2023-05-02T12:06:55.927Z,95.30
2023-05-02T12:09:23.642Z,94.30
2023-05-02T12:11:54.176Z,94.20
2023-05-02T12:14:33.388Z,94.40
2023-05-02T12:17:01.267Z,94.30
2023-05-02T12:19:28.844Z,94.00
2023-05-02T12:21:56.160Z,94.00
2023-05-02T12:24:23.760Z,94.40
2023-05-02T12:27:08.494Z,94.90
2023-05-02T12:29:43.426Z,94.60
2023-05-02T12:32:11.675Z,94.60
2023-05-02T12:34:39.636Z,94.40
2023-05-02T12:37:08.230Z,93.90
2023-05-02T12:39:40.829Z,93.70
2023-05-02T12:42:16.430Z,93.60
2023-05-02T12:44:45.753Z,93.10
2023-05-02T12:47:15.331Z,92.90
2023-05-02T12:49:57.383Z,92.80
2023-05-02T12:52:51.078Z,92.70
2023-05-02T12:55:27.144Z,92.20
2023-05-02T12:58:04.210Z,92.00
2023-05-02T13:00:32.825Z,90.80
2023-05-02T13:03:00.215Z,90.90
2023-05-02T13:05:27.632Z,90.50
2023-05-02T13:07:59.232Z,90.00
2023-05-02T13:10:27.810Z,90.30
2023-05-02T13:12:55.591Z,89.50
2023-05-02T13:15:23.003Z,89.80
2023-05-02T13:17:51.733Z,89.00
2023-05-02T13:20:19.507Z,88.60
2023-05-02T13:22:46.768Z,90.50
2023-05-02T13:25:14.113Z,90.40
2023-05-02T13:27:41.466Z,88.60
2023-05-02T13:30:10.212Z,89.20
2023-05-02T13:32:38.531Z,86.20
2023-05-02T13:35:06.703Z,86.50
2023-05-02T13:37:34.003Z,84.90
2023-05-02T13:40:01.840Z,84.70
2023-05-02T13:42:29.339Z,82.90
2023-05-02T13:44:56.694Z,83.40
2023-05-02T13:47:24.326Z,82.20
2023-05-02T13:49:51.784Z,80.60
2023-05-02T13:52:19.154Z,82.00
2023-05-02T13:54:46.473Z,82.10
2023-05-02T13:57:13.803Z,82.30
2023-05-02T13:59:41.059Z,80.40
2023-05-02T14:02:08.337Z,80.00
2023-05-02T14:04:35.915Z,77.30
2023-05-02T14:07:03.214Z,78.50
2023-05-02T14:09:30.634Z,77.70
2023-05-02T14:11:58.945Z,75.30
2023-05-02T14:14:26.191Z,75.50
2023-05-02T14:16:53.500Z,75.00
2023-05-02T14:19:20.788Z,71.10
2023-05-02T14:21:48.123Z,70.40
2023-05-02T14:24:16.383Z,65.00
2023-05-02T14:26:43.654Z,65.40
2023-05-02T14:29:11.321Z,61.70
2023-05-02T14:31:38.665Z,60.00
2023-05-02T14:34:08.737Z,59.10
2023-05-02T14:36:36.464Z,58.00
2023-05-02T14:39:03.898Z,55.40
2023-05-02T14:41:31.588Z,54.20
2023-05-02T14:43:58.877Z,53.20
2023-05-02T14:46:26.247Z,51.40
2023-05-02T14:48:53.448Z,48.30
2023-05-02T14:51:20.699Z,47.80
2023-05-02T14:53:49.265Z,46.50
2023-05-02T14:56:18.530Z,45.80
2023-05-02T14:58:46.213Z,46.20
2023-05-02T15:01:18.349Z,45.10
2023-05-02T15:04:03.542Z,45.10
2023-05-02T15:06:32.568Z,44.60
2023-05-02T15:09:00.085Z,44.40
2023-05-02T15:11:27.440Z,43.30
2023-05-02T15:13:56.598Z,42.40
2023-05-02T15:16:26.888Z,42.60
2023-05-02T15:18:54.795Z,41.70
2023-05-02T15:21:22.557Z,41.60
2023-05-02T15:23:49.949Z,40.90
2023-05-02T15:26:17.658Z,41.70
2023-05-02T15:28:45.628Z,42.90
2023-05-02T15:31:12.983Z,44.30
2023-05-02T15:33:40.477Z,45.30
2023-05-02T15:36:08.155Z,45.90
2023-05-02T15:38:39.275Z,45.60
2023-05-02T15:41:08.110Z,45.20
2023-05-02T15:43:35.548Z,44.00
2023-05-02T15:46:03.173Z,43.00
2023-05-02T15:48:35.141Z,41.70
2023-05-02T15:51:03.164Z,41.00
2023-05-02T15:53:30.825Z,41.30
2023-05-02T15:55:58.082Z,41.50
2023-05-02T15:58:25.428Z,41.30
2023-05-02T16:00:52.917Z,41.30
2023-05-02T16:03:20.358Z,41.50
2023-05-02T16:05:47.636Z,41.60
2023-05-02T16:08:14.890Z,41.70
2023-05-02T16:10:43.531Z,41.50
2023-05-02T16:13:11.049Z,41.90
2023-05-02T16:15:39.112Z,42.80
2023-05-02T16:18:06.473Z,43.50
2023-05-02T16:20:36.496Z,44.40
2023-05-02T16:23:04.709Z,45.10
2023-05-02T16:25:32.662Z,46.60
2023-05-02T16:28:00.125Z,47.50
2023-05-02T16:30:28.176Z,48.10
2023-05-02T16:32:55.488Z,48.80
2023-05-02T16:35:22.761Z,49.50
2023-05-02T16:37:49.989Z,50.30
2023-05-02T16:40:17.486Z,51.10
2023-05-02T16:42:45.023Z,51.70
2023-05-02T16:45:12.458Z,52.40
2023-05-02T16:47:39.791Z,53.10
2023-05-02T16:50:08.063Z,53.40
2023-05-02T16:52:37.438Z,53.30
2023-05-02T16:55:05.492Z,53.80
2023-05-02T16:57:32.832Z,54.00
2023-05-02T17:00:00.814Z,54.60
2023-05-02T17:02:28.533Z,55.10
2023-05-02T17:04:55.918Z,55.40
2023-05-02T17:07:23.231Z,55.30
2023-05-02T17:09:50.617Z,55.50
2023-05-02T17:12:22.649Z,55.80
2023-05-02T17:14:50.058Z,56.00
2023-05-02T17:17:19.085Z,55.50
2023-05-02T17:19:47.702Z,56.80
2023-05-02T17:22:15.307Z,57.50
2023-05-02T17:24:43.294Z,57.70
2023-05-02T17:27:11.563Z,57.80
2023-05-02T17:29:38.819Z,58.00
2023-05-02T17:32:06.285Z,58.20
2023-05-02T17:34:35.800Z,58.20
2023-05-02T17:37:03.242Z,58.60
2023-05-02T17:39:30.698Z,57.90
2023-05-02T17:41:58.137Z,58.20
2023-05-02T17:44:25.558Z,58.00
2023-05-02T17:46:53.427Z,58.60
2023-05-02T17:49:21.872Z,58.80
2023-05-02T17:51:49.305Z,58.60
2023-05-02T17:54:16.577Z,59.40
2023-05-02T17:56:43.987Z,59.60
2023-05-02T17:59:11.678Z,59.00
2023-05-02T18:01:39.255Z,59.30
2023-05-02T18:04:06.615Z,59.90
2023-05-02T18:06:34.380Z,60.00
2023-05-02T18:09:01.580Z,60.10
2023-05-02T18:11:38.488Z,60.70
2023-05-02T18:14:06.229Z,60.30
2023-05-02T18:16:36.142Z,61.00
2023-05-02T18:19:03.562Z,61.60
2023-05-02T18:21:32.719Z,62.10
2023-05-02T18:24:00.401Z,62.50
2023-05-02T18:26:27.614Z,62.40
2023-05-02T18:28:54.881Z,62.90
2023-05-02T18:31:22.433Z,63.30
2023-05-02T18:33:50.007Z,63.80
2023-05-02T18:36:23.664Z,64.00
2023-05-02T18:38:50.984Z,64.30
2023-05-02T18:41:18.409Z,64.40
2023-05-02T18:43:45.722Z,64.70
2023-05-02T18:46:13.112Z,65.30
2023-05-02T18:48:40.489Z,65.00
2023-05-02T18:51:08.236Z,64.50
2023-05-02T18:53:35.480Z,64.40
2023-05-02T18:56:02.942Z,64.50
2023-05-02T18:58:30.208Z,64.70
2023-05-02T19:00:57.459Z,64.90
2023-05-02T19:03:26.790Z,64.90
2023-05-02T19:05:54.275Z,65.50
2023-05-02T19:08:22.873Z,65.50
2023-05-02T19:10:51.584Z,66.00
2023-05-02T19:13:19.308Z,66.70
2023-05-02T19:15:46.650Z,67.20
2023-05-02T19:18:14.388Z,67.80
2023-05-02T19:20:41.637Z,68.00
2023-05-02T19:23:19.541Z,68.30
2023-05-02T19:25:47.930Z,68.30
2023-05-02T19:28:18.048Z,68.20
2023-05-02T19:30:45.578Z,68.50
2023-05-02T19:33:15.195Z,68.80
2023-05-02T19:35:42.572Z,68.70
2023-05-02T19:38:09.864Z,69.00
2023-05-02T19:40:37.131Z,68.90
2023-05-02T19:43:06.064Z,69.10
2023-05-02T19:45:33.540Z,68.90
2023-05-02T19:48:00.779Z,68.90
2023-05-02T19:50:28.138Z,68.70
2023-05-02T19:52:55.516Z,69.00
2023-05-02T19:55:22.942Z,69.30
2023-05-02T19:57:50.144Z,69.30
2023-05-02T20:00:17.570Z,69.40
2023-05-02T20:02:45.364Z,69.40
2023-05-02T20:05:13.029Z,69.20
2023-05-02T20:07:40.738Z,69.20
2023-05-02T20:10:08.902Z,69.40
2023-05-02T20:12:36.263Z,69.40
2023-05-02T20:15:04.151Z,69.60
2023-05-02T20:17:31.566Z,69.60
2023-05-02T20:20:07.097Z,69.70
2023-05-02T20:22:35.012Z,69.70
2023-05-02T20:25:02.421Z,69.90
2023-05-02T20:27:31.878Z,69.90
2023-05-02T20:29:59.283Z,70.20
2023-05-02T20:32:26.911Z,70.50
2023-05-02T20:34:54.195Z,70.70
2023-05-02T20:37:21.681Z,70.90
2023-05-02T20:39:48.968Z,71.00
2023-05-02T20:42:23.046Z,71.60
2023-05-02T20:45:01.684Z,71.70
2023-05-02T20:47:30.271Z,72.60
2023-05-02T20:49:57.543Z,72.20
2023-05-02T20:52:24.920Z,72.30
2023-05-02T20:54:55.897Z,72.50
2023-05-02T20:57:24.228Z,72.40
2023-05-02T20:59:51.505Z,72.80
2023-05-02T21:02:18.710Z,73.00
2023-05-02T21:04:45.960Z,73.70
2023-05-02T21:07:13.180Z,74.20
2023-05-02T21:09:40.570Z,74.40
2023-05-02T21:12:07.783Z,74.70
2023-05-02T21:14:35.060Z,75.10
2023-05-02T21:17:03.558Z,75.40
2023-05-02T21:19:34.028Z,75.50
2023-05-02T21:22:01.247Z,75.80
2023-05-02T21:24:28.495Z,76.00
2023-05-02T21:26:55.687Z,76.10
2023-05-02T21:29:22.933Z,76.30
2023-05-02T21:31:51.393Z,76.30
2023-05-02T21:34:19.861Z,76.50
2023-05-02T21:36:47.231Z,76.60
2023-05-02T21:39:14.935Z,76.60
2023-05-02T21:41:42.335Z,76.80
2023-05-02T21:44:11.321Z,76.90
2023-05-02T21:46:38.535Z,77.00
2023-05-02T21:49:05.840Z,77.20
2023-05-02T21:51:34.353Z,77.60
2023-05-02T21:54:01.602Z,78.00
2023-05-02T21:56:28.841Z,78.50
2023-05-02T21:58:56.142Z,79.60
2023-05-02T22:01:23.369Z,78.90
2023-05-02T22:03:50.652Z,78.90
2023-05-02T22:06:17.917Z,79.20
2023-05-02T22:08:45.551Z,79.30
2023-05-02T22:11:12.993Z,79.50
2023-05-02T22:13:40.565Z,79.90
2023-05-02T22:16:08.034Z,80.10
2023-05-02T22:18:35.560Z,80.40
2023-05-02T22:21:05.068Z,80.60
2023-05-02T22:23:32.329Z,80.70
2023-05-02T22:25:59.563Z,80.80
2023-05-02T22:28:26.903Z,80.70
2023-05-02T22:30:54.820Z,80.50
2023-05-02T22:33:22.051Z,80.40
2023-05-02T22:35:49.250Z,80.60
2023-05-02T22:38:16.941Z,80.90
2023-05-02T22:40:44.155Z,81.10
2023-05-02T22:43:11.417Z,81.30
2023-05-02T22:45:38.695Z,81.20
2023-05-02T22:48:09.211Z,81.30
2023-05-02T22:50:36.582Z,81.60
2023-05-02T22:53:04.171Z,81.80
2023-05-02T22:55:31.531Z,82.10
2023-05-02T22:57:58.806Z,82.30
2023-05-02T23:00:26.117Z,82.40
2023-05-02T23:02:53.405Z,82.50
2023-05-02T23:05:20.859Z,83.00
2023-05-02T23:07:48.865Z,83.10
2023-05-02T23:10:16.240Z,83.30
2023-05-02T23:12:43.534Z,83.60
2023-05-02T23:15:11.082Z,84.10
2023-05-02T23:17:42.141Z,84.40
2023-05-02T23:20:12.713Z,84.70
2023-05-02T23:22:45.802Z,84.80
2023-05-02T23:25:14.346Z,84.80
2023-05-02T23:27:41.789Z,85.10
2023-05-02T23:30:09.680Z,85.40
2023-05-02T23:32:37.483Z,86.00
2023-05-02T23:35:05.843Z,86.40
2023-05-02T23:37:33.328Z,86.50
2023-05-02T23:40:00.874Z,86.80
2023-05-02T23:42:30.084Z,87.10
2023-05-02T23:44:57.854Z,88.20
2023-05-02T23:47:28.069Z,88.00
2023-05-02T23:49:56.376Z,88.90
2023-05-02T23:52:23.670Z,89.00
2023-05-02T23:54:52.226Z,89.50
2023-05-02T23:57:19.452Z,90.00
2023-05-02T23:59:46.736Z,90.20
